sensor_id;sensor_type;location;lat;lon;timestamp;pressure;altitude;pressure_sealevel;temperature;humidity
3096;BME280;1558;42.700;23.360;2023-02-23T00:01:55;95171.28;;;6.48;86.67
3096;BME280;1558;42.700;23.360;2023-02-23T00:04:25;95126.84;;;6.17;87.53
3096;BME280;1558;42.700;23.360;2023-02-23T00:06:53;95167.72;;;6.31;88.02
3096;BME280;1558;42.700;23.360;2023-02-23T00:09:21;95186.22;;;6.41;88.67
3096;BME280;1558;42.700;23.360;2023-02-23T00:11:54;95189.50;;;6.38;88.75
3096;BME280;1558;42.700;23.360;2023-02-23T00:14:25;95185.06;;;6.33;88.63
3096;BME280;1558;42.700;23.360;2023-02-23T00:16:54;95164.69;;;6.24;89.17
3096;BME280;1558;42.700;23.360;2023-02-23T00:19:22;95190.53;;;6.28;88.98
3096;BME280;1558;42.700;23.360;2023-02-23T00:21:52;95184.91;;;6.30;89.40
3096;BME280;1558;42.700;23.360;2023-02-23T00:24:24;95194.13;;;6.24;89.64
3096;BME280;1558;42.700;23.360;2023-02-23T00:26:53;95193.31;;;6.14;90.16
3096;BME280;1558;42.700;23.360;2023-02-23T00:29:22;95189.19;;;6.08;90.43
3096;BME280;1558;42.700;23.360;2023-02-23T00:31:52;95186.63;;;6.03;89.67
3096;BME280;1558;42.700;23.360;2023-02-23T00:34:22;95187.38;;;6.04;89.99
3096;BME280;1558;42.700;23.360;2023-02-23T00:36:52;95188.38;;;6.08;90.77
3096;BME280;1558;42.700;23.360;2023-02-23T00:39:22;95193.31;;;6.14;90.32
3096;BME280;1558;42.700;23.360;2023-02-23T00:41:53;95191.34;;;6.06;90.23
3096;BME280;1558;42.700;23.360;2023-02-23T00:44:23;95145.28;;;5.74;90.30
3096;BME280;1558;42.700;23.360;2023-02-23T00:46:51;95180.53;;;5.89;90.76
3096;BME280;1558;42.700;23.360;2023-02-23T00:49:20;95136.72;;;5.63;90.16
3096;BME280;1558;42.700;23.360;2023-02-23T00:51:48;95190.44;;;5.89;90.34
3096;BME280;1558;42.700;23.360;2023-02-23T00:54:20;95186.09;;;5.79;90.69
3096;BME280;1558;42.700;23.360;2023-02-23T00:56:49;95184.78;;;5.90;91.28
3096;BME280;1558;42.700;23.360;2023-02-23T00:59:17;95191.63;;;5.96;90.72
3096;BME280;1558;42.700;23.360;2023-02-23T01:01:46;95185.47;;;5.96;90.67
3096;BME280;1558;42.700;23.360;2023-02-23T01:04:14;95113.13;;;5.65;91.03
3096;BME280;1558;42.700;23.360;2023-02-23T01:06:42;95112.78;;;5.58;90.14
3096;BME280;1558;42.700;23.360;2023-02-23T01:09:14;95178.03;;;5.93;90.42
3096;BME280;1558;42.700;23.360;2023-02-23T01:11:55;95184.63;;;5.87;90.25
3096;BME280;1558;42.700;23.360;2023-02-23T01:14:28;95184.72;;;5.82;90.64
3096;BME280;1558;42.700;23.360;2023-02-23T01:16:56;95182.94;;;5.77;91.00
3096;BME280;1558;42.700;23.360;2023-02-23T01:19:24;95180.19;;;5.69;91.38
3096;BME280;1558;42.700;23.360;2023-02-23T01:21:52;95186.34;;;5.69;92.13
3096;BME280;1558;42.700;23.360;2023-02-23T01:24:20;95175.44;;;5.43;92.03
3096;BME280;1558;42.700;23.360;2023-02-23T01:26:48;95177.91;;;5.40;92.66
3096;BME280;1558;42.700;23.360;2023-02-23T01:29:17;95144.69;;;5.19;93.72
3096;BME280;1558;42.700;23.360;2023-02-23T01:31:46;95163.66;;;5.31;94.25
3096;BME280;1558;42.700;23.360;2023-02-23T01:34:18;95182.88;;;5.33;94.21
3096;BME280;1558;42.700;23.360;2023-02-23T01:36:47;95183.69;;;5.20;94.95
3096;BME280;1558;42.700;23.360;2023-02-23T01:39:17;95195.75;;;5.31;96.15
3096;BME280;1558;42.700;23.360;2023-02-23T01:41:45;95178.16;;;5.30;95.95
3096;BME280;1558;42.700;23.360;2023-02-23T01:47:15;95174.63;;;5.43;96.35
3096;BME280;1558;42.700;23.360;2023-02-23T01:49:46;95182.06;;;5.46;96.36
3096;BME280;1558;42.700;23.360;2023-02-23T01:52:15;95170.50;;;5.37;95.98
3096;BME280;1558;42.700;23.360;2023-02-23T01:54:46;95179.59;;;5.36;95.86
3096;BME280;1558;42.700;23.360;2023-02-23T01:57:18;95179.22;;;5.29;96.48
3096;BME280;1558;42.700;23.360;2023-02-23T01:59:51;95168.47;;;5.20;96.74
3096;BME280;1558;42.700;23.360;2023-02-23T02:02:23;95180.41;;;5.36;97.16
3096;BME280;1558;42.700;23.360;2023-02-23T02:04:58;95169.31;;;5.29;96.57
3096;BME280;1558;42.700;23.360;2023-02-23T02:07:29;95173.28;;;5.32;96.74
3096;BME280;1558;42.700;23.360;2023-02-23T02:10:01;95174.34;;;5.31;96.75
3096;BME280;1558;42.700;23.360;2023-02-23T02:12:45;95177.75;;;5.23;96.79
3096;BME280;1558;42.700;23.360;2023-02-23T02:15:18;95175.19;;;5.18;97.79
3096;BME280;1558;42.700;23.360;2023-02-23T02:17:58;95122.00;;;4.80;98.12
3096;BME280;1558;42.700;23.360;2023-02-23T02:20:58;95175.97;;;5.18;98.70
3096;BME280;1558;42.700;23.360;2023-02-23T02:26:46;95183.81;;;5.15;99.27
3096;BME280;1558;42.700;23.360;2023-02-23T02:29:44;95175.59;;;4.98;99.29
3096;BME280;1558;42.700;23.360;2023-02-23T02:32:56;95187.19;;;4.93;100.00
3096;BME280;1558;42.700;23.360;2023-02-23T02:36:04;95186.19;;;5.03;100.00
3096;BME280;1558;42.700;23.360;2023-02-23T02:38:47;95184.13;;;5.00;100.00
3096;BME280;1558;42.700;23.360;2023-02-23T02:41:27;95188.47;;;4.96;100.00
3096;BME280;1558;42.700;23.360;2023-02-23T02:44:08;95176.59;;;4.88;100.00
3096;BME280;1558;42.700;23.360;2023-02-23T02:46:40;95180.06;;;4.89;100.00
3096;BME280;1558;42.700;23.360;2023-02-23T02:49:13;95173.84;;;4.79;100.00
3096;BME280;1558;42.700;23.360;2023-02-23T02:51:47;95175.41;;;4.80;100.00
3096;BME280;1558;42.700;23.360;2023-02-23T02:54:24;95184.44;;;4.85;100.00
3096;BME280;1558;42.700;23.360;2023-02-23T02:56:54;95178.81;;;4.72;100.00
3096;BME280;1558;42.700;23.360;2023-02-23T02:59:26;95104.31;;;4.03;100.00
3096;BME280;1558;42.700;23.360;2023-02-23T03:02:15;95179.38;;;4.42;100.00
3096;BME280;1558;42.700;23.360;2023-02-23T03:05:01;95167.31;;;4.45;100.00
3096;BME280;1558;42.700;23.360;2023-02-23T03:07:52;95129.91;;;4.04;100.00
3096;BME280;1558;42.700;23.360;2023-02-23T03:10:45;95177.00;;;4.27;100.00
3096;BME280;1558;42.700;23.360;2023-02-23T03:13:43;95184.19;;;4.27;100.00
3096;BME280;1558;42.700;23.360;2023-02-23T03:16:38;95187.66;;;4.27;100.00
3096;BME280;1558;42.700;23.360;2023-02-23T03:19:30;95120.75;;;3.78;100.00
3096;BME280;1558;42.700;23.360;2023-02-23T03:22:23;95133.22;;;3.82;100.00
3096;BME280;1558;42.700;23.360;2023-02-23T03:25:13;95172.91;;;4.16;100.00
3096;BME280;1558;42.700;23.360;2023-02-23T03:28:08;95189.63;;;4.22;100.00
3096;BME280;1558;42.700;23.360;2023-02-23T03:31:02;95183.78;;;4.06;100.00
3096;BME280;1558;42.700;23.360;2023-02-23T03:33:55;95166.94;;;3.92;100.00
3096;BME280;1558;42.700;23.360;2023-02-23T03:36:50;95194.09;;;3.94;100.00
3096;BME280;1558;42.700;23.360;2023-02-23T03:39:40;95196.44;;;3.82;100.00
3096;BME280;1558;42.700;23.360;2023-02-23T03:42:31;95178.31;;;3.65;100.00
3096;BME280;1558;42.700;23.360;2023-02-23T03:45:22;95202.75;;;3.86;100.00
3096;BME280;1558;42.700;23.360;2023-02-23T03:48:11;95201.78;;;3.82;100.00
3096;BME280;1558;42.700;23.360;2023-02-23T03:51:01;95223.31;;;3.85;100.00
3096;BME280;1558;42.700;23.360;2023-02-23T03:53:54;95212.22;;;3.97;100.00
3096;BME280;1558;42.700;23.360;2023-02-23T03:56:45;95216.81;;;3.91;100.00
3096;BME280;1558;42.700;23.360;2023-02-23T03:59:35;95207.94;;;3.96;100.00
3096;BME280;1558;42.700;23.360;2023-02-23T04:02:24;95197.28;;;3.96;100.00
3096;BME280;1558;42.700;23.360;2023-02-23T04:05:14;95212.94;;;4.16;100.00
3096;BME280;1558;42.700;23.360;2023-02-23T04:08:02;95220.25;;;4.10;100.00
3096;BME280;1558;42.700;23.360;2023-02-23T04:10:57;95220.63;;;4.04;100.00
3096;BME280;1558;42.700;23.360;2023-02-23T04:13:47;95213.69;;;4.03;100.00
3096;BME280;1558;42.700;23.360;2023-02-23T04:16:15;95216.78;;;4.10;100.00
3096;BME280;1558;42.700;23.360;2023-02-23T04:18:44;95211.78;;;4.22;100.00
3096;BME280;1558;42.700;23.360;2023-02-23T04:21:12;95210.19;;;4.21;100.00
3096;BME280;1558;42.700;23.360;2023-02-23T04:23:41;95204.41;;;4.00;100.00
3096;BME280;1558;42.700;23.360;2023-02-23T04:26:09;95208.75;;;3.96;100.00
3096;BME280;1558;42.700;23.360;2023-02-23T04:28:37;95212.88;;;3.89;100.00
3096;BME280;1558;42.700;23.360;2023-02-23T04:31:05;95200.97;;;3.81;100.00
3096;BME280;1558;42.700;23.360;2023-02-23T04:33:33;95211.19;;;3.93;100.00
3096;BME280;1558;42.700;23.360;2023-02-23T04:36:02;95209.81;;;3.95;100.00
3096;BME280;1558;42.700;23.360;2023-02-23T04:38:30;95213.16;;;3.87;100.00
3096;BME280;1558;42.700;23.360;2023-02-23T04:40:58;95213.25;;;3.82;100.00
3096;BME280;1558;42.700;23.360;2023-02-23T04:43:26;95213.59;;;3.94;100.00
3096;BME280;1558;42.700;23.360;2023-02-23T04:45:54;95202.81;;;3.99;100.00
3096;BME280;1558;42.700;23.360;2023-02-23T04:48:22;95216.66;;;4.01;100.00
3096;BME280;1558;42.700;23.360;2023-02-23T04:50:52;95215.78;;;4.06;100.00
3096;BME280;1558;42.700;23.360;2023-02-23T04:53:22;95214.91;;;4.10;100.00
3096;BME280;1558;42.700;23.360;2023-02-23T04:55:51;95195.69;;;3.95;100.00
3096;BME280;1558;42.700;23.360;2023-02-23T04:58:18;95154.84;;;3.49;100.00
3096;BME280;1558;42.700;23.360;2023-02-23T05:00:46;95214.63;;;3.80;100.00
3096;BME280;1558;42.700;23.360;2023-02-23T05:03:15;95222.44;;;3.90;100.00
3096;BME280;1558;42.700;23.360;2023-02-23T05:05:44;95219.66;;;3.81;100.00
3096;BME280;1558;42.700;23.360;2023-02-23T05:08:12;95212.44;;;3.82;100.00
3096;BME280;1558;42.700;23.360;2023-02-23T05:10:41;95222.53;;;3.85;100.00
3096;BME280;1558;42.700;23.360;2023-02-23T05:13:09;95218.34;;;3.79;100.00
3096;BME280;1558;42.700;23.360;2023-02-23T05:15:37;95204.75;;;3.62;100.00
3096;BME280;1558;42.700;23.360;2023-02-23T05:18:05;95220.44;;;3.82;100.00
3096;BME280;1558;42.700;23.360;2023-02-23T05:20:33;95225.44;;;3.70;100.00
3096;BME280;1558;42.700;23.360;2023-02-23T05:23:01;95225.13;;;3.71;100.00
3096;BME280;1558;42.700;23.360;2023-02-23T05:25:30;95230.63;;;3.80;100.00
3096;BME280;1558;42.700;23.360;2023-02-23T05:28:00;95216.25;;;3.76;100.00
3096;BME280;1558;42.700;23.360;2023-02-23T05:30:28;95231.53;;;3.89;100.00
3096;BME280;1558;42.700;23.360;2023-02-23T05:32:56;95227.59;;;4.00;100.00
3096;BME280;1558;42.700;23.360;2023-02-23T05:35:24;95236.03;;;4.07;100.00
3096;BME280;1558;42.700;23.360;2023-02-23T05:37:52;95228.75;;;4.13;100.00
3096;BME280;1558;42.700;23.360;2023-02-23T05:40:20;95243.50;;;4.24;100.00
3096;BME280;1558;42.700;23.360;2023-02-23T05:42:48;95209.16;;;4.03;100.00
3096;BME280;1558;42.700;23.360;2023-02-23T05:45:17;95246.47;;;4.22;100.00
3096;BME280;1558;42.700;23.360;2023-02-23T05:47:45;95250.50;;;4.20;100.00
3096;BME280;1558;42.700;23.360;2023-02-23T05:50:13;95214.94;;;4.24;100.00
3096;BME280;1558;42.700;23.360;2023-02-23T05:52:41;95254.78;;;4.80;100.00
3096;BME280;1558;42.700;23.360;2023-02-23T05:55:10;95242.81;;;5.05;100.00
3096;BME280;1558;42.700;23.360;2023-02-23T05:57:38;95258.50;;;5.47;100.00
3096;BME280;1558;42.700;23.360;2023-02-23T06:00:10;95257.66;;;5.87;100.00
3096;BME280;1558;42.700;23.360;2023-02-23T06:02:40;95259.00;;;6.21;100.00
3096;BME280;1558;42.700;23.360;2023-02-23T06:05:09;95250.72;;;6.31;100.00
3096;BME280;1558;42.700;23.360;2023-02-23T06:07:37;95260.69;;;6.61;100.00
3096;BME280;1558;42.700;23.360;2023-02-23T06:10:05;95271.13;;;7.02;100.00
3096;BME280;1558;42.700;23.360;2023-02-23T06:12:33;95270.19;;;7.45;100.00
3096;BME280;1558;42.700;23.360;2023-02-23T06:15:02;95262.34;;;7.58;99.44
3096;BME280;1558;42.700;23.360;2023-02-23T06:17:30;95266.13;;;7.74;96.20
3096;BME280;1558;42.700;23.360;2023-02-23T06:19:59;95263.47;;;7.74;95.29
3096;BME280;1558;42.700;23.360;2023-02-23T06:22:30;95274.34;;;7.69;92.12
3096;BME280;1558;42.700;23.360;2023-02-23T06:24:58;95281.91;;;7.67;92.58
3096;BME280;1558;42.700;23.360;2023-02-23T06:27:26;95279.75;;;8.03;90.66
3096;BME280;1558;42.700;23.360;2023-02-23T06:29:56;95277.88;;;8.12;88.89
3096;BME280;1558;42.700;23.360;2023-02-23T06:32:24;95278.06;;;8.41;85.79
3096;BME280;1558;42.700;23.360;2023-02-23T06:34:53;95276.75;;;8.56;83.46
3096;BME280;1558;42.700;23.360;2023-02-23T06:37:23;95280.38;;;8.68;83.02
3096;BME280;1558;42.700;23.360;2023-02-23T06:39:52;95292.31;;;8.97;80.84
3096;BME280;1558;42.700;23.360;2023-02-23T06:42:20;95262.84;;;8.62;79.30
3096;BME280;1558;42.700;23.360;2023-02-23T06:44:48;95288.19;;;8.99;78.41
3096;BME280;1558;42.700;23.360;2023-02-23T06:47:19;95288.22;;;8.91;78.81
3096;BME280;1558;42.700;23.360;2023-02-23T06:49:47;95288.81;;;9.05;77.77
3096;BME280;1558;42.700;23.360;2023-02-23T06:52:15;95290.22;;;9.11;76.91
3096;BME280;1558;42.700;23.360;2023-02-23T06:54:44;95295.44;;;9.16;76.58
3096;BME280;1558;42.700;23.360;2023-02-23T06:57:13;95279.25;;;8.78;77.06
3096;BME280;1558;42.700;23.360;2023-02-23T06:59:42;95291.88;;;8.77;77.06
3096;BME280;1558;42.700;23.360;2023-02-23T07:02:11;95233.94;;;8.42;77.63
3096;BME280;1558;42.700;23.360;2023-02-23T07:04:39;95294.72;;;8.98;78.11
3096;BME280;1558;42.700;23.360;2023-02-23T07:07:09;95280.34;;;8.85;78.67
3096;BME280;1558;42.700;23.360;2023-02-23T07:09:38;95287.91;;;9.38;77.88
3096;BME280;1558;42.700;23.360;2023-02-23T07:12:08;95291.84;;;9.41;76.40
3096;BME280;1558;42.700;23.360;2023-02-23T07:14:38;95290.34;;;9.23;76.51
3096;BME280;1558;42.700;23.360;2023-02-23T07:17:06;95287.56;;;9.40;75.89
3096;BME280;1558;42.700;23.360;2023-02-23T07:19:38;95287.19;;;9.21;76.57
3096;BME280;1558;42.700;23.360;2023-02-23T07:22:06;95293.00;;;9.90;76.94
3096;BME280;1558;42.700;23.360;2023-02-23T07:24:35;95234.25;;;9.83;74.46
3096;BME280;1558;42.700;23.360;2023-02-23T07:27:04;95261.00;;;10.09;73.95
3096;BME280;1558;42.700;23.360;2023-02-23T07:29:33;95277.06;;;10.47;72.86
3096;BME280;1558;42.700;23.360;2023-02-23T07:32:01;95286.34;;;10.37;71.43
3096;BME280;1558;42.700;23.360;2023-02-23T07:34:32;95272.72;;;10.13;71.65
3096;BME280;1558;42.700;23.360;2023-02-23T07:37:00;95275.41;;;9.92;72.45
3096;BME280;1558;42.700;23.360;2023-02-23T07:39:27;95251.94;;;9.72;73.48
3096;BME280;1558;42.700;23.360;2023-02-23T07:41:56;95267.88;;;9.77;72.91
3096;BME280;1558;42.700;23.360;2023-02-23T07:44:24;95281.75;;;9.67;74.32
3096;BME280;1558;42.700;23.360;2023-02-23T07:46:53;95281.69;;;10.26;74.24
3096;BME280;1558;42.700;23.360;2023-02-23T07:49:21;95274.78;;;11.02;72.12
3096;BME280;1558;42.700;23.360;2023-02-23T07:51:51;95265.16;;;11.62;69.21
3096;BME280;1558;42.700;23.360;2023-02-23T07:54:18;95270.34;;;11.54;67.58
3096;BME280;1558;42.700;23.360;2023-02-23T07:56:47;95263.69;;;11.52;66.76
3096;BME280;1558;42.700;23.360;2023-02-23T07:59:15;95270.34;;;11.54;67.20
3096;BME280;1558;42.700;23.360;2023-02-23T08:01:43;95261.03;;;12.28;66.63
3096;BME280;1558;42.700;23.360;2023-02-23T08:04:12;95270.47;;;12.89;64.43
3096;BME280;1558;42.700;23.360;2023-02-23T08:06:40;95267.38;;;12.75;62.63
3096;BME280;1558;42.700;23.360;2023-02-23T08:09:09;95270.19;;;12.51;62.91
3096;BME280;1558;42.700;23.360;2023-02-23T08:11:38;95256.44;;;13.00;61.84
3096;BME280;1558;42.700;23.360;2023-02-23T08:14:06;95266.88;;;13.29;61.29
3096;BME280;1558;42.700;23.360;2023-02-23T08:16:36;95263.38;;;13.44;60.88
3096;BME280;1558;42.700;23.360;2023-02-23T08:19:03;95258.13;;;13.20;60.22
3096;BME280;1558;42.700;23.360;2023-02-23T08:21:35;95251.66;;;13.24;59.59
3096;BME280;1558;42.700;23.360;2023-02-23T08:24:04;95252.44;;;12.81;60.42
3096;BME280;1558;42.700;23.360;2023-02-23T08:26:34;95264.31;;;12.77;61.44
3096;BME280;1558;42.700;23.360;2023-02-23T08:29:02;95259.53;;;13.61;60.72
3096;BME280;1558;42.700;23.360;2023-02-23T08:31:30;95262.84;;;13.85;59.81
3096;BME280;1558;42.700;23.360;2023-02-23T08:33:58;95254.00;;;14.07;58.22
3096;BME280;1558;42.700;23.360;2023-02-23T08:36:27;95262.38;;;14.34;57.85
3096;BME280;1558;42.700;23.360;2023-02-23T08:38:56;95257.91;;;14.25;57.25
3096;BME280;1558;42.700;23.360;2023-02-23T08:41:26;95232.78;;;14.29;57.18
3096;BME280;1558;42.700;23.360;2023-02-23T08:43:54;95255.78;;;14.92;55.88
3096;BME280;1558;42.700;23.360;2023-02-23T08:46:22;95224.03;;;14.96;55.10
3096;BME280;1558;42.700;23.360;2023-02-23T08:48:50;95247.81;;;14.80;54.14
3096;BME280;1558;42.700;23.360;2023-02-23T08:51:18;95254.44;;;15.24;54.36
3096;BME280;1558;42.700;23.360;2023-02-23T08:53:46;95256.31;;;15.20;53.64
3096;BME280;1558;42.700;23.360;2023-02-23T08:56:15;95249.22;;;14.74;53.63
3096;BME280;1558;42.700;23.360;2023-02-23T08:58:45;95231.66;;;14.49;54.41
3096;BME280;1558;42.700;23.360;2023-02-23T09:01:15;95247.94;;;14.87;55.25
3096;BME280;1558;42.700;23.360;2023-02-23T09:03:44;95237.22;;;15.85;53.85
3096;BME280;1558;42.700;23.360;2023-02-23T09:06:15;95244.56;;;16.10;51.99
3096;BME280;1558;42.700;23.360;2023-02-23T09:08:44;95252.31;;;16.08;51.27
3096;BME280;1558;42.700;23.360;2023-02-23T09:11:12;95249.28;;;16.13;51.25
3096;BME280;1558;42.700;23.360;2023-02-23T09:13:41;95235.94;;;16.05;50.03
3096;BME280;1558;42.700;23.360;2023-02-23T09:16:10;95240.22;;;16.06;51.10
3096;BME280;1558;42.700;23.360;2023-02-23T09:18:38;95232.34;;;16.86;50.01
3096;BME280;1558;42.700;23.360;2023-02-23T09:21:07;95206.13;;;16.45;49.27
3096;BME280;1558;42.700;23.360;2023-02-23T09:23:39;95242.31;;;16.46;50.18
3096;BME280;1558;42.700;23.360;2023-02-23T09:26:07;95215.41;;;16.41;49.49
3096;BME280;1558;42.700;23.360;2023-02-23T09:28:37;95238.34;;;17.03;49.75
3096;BME280;1558;42.700;23.360;2023-02-23T09:31:09;95241.06;;;17.39;48.39
3096;BME280;1558;42.700;23.360;2023-02-23T09:33:38;95240.47;;;17.20;48.18
3096;BME280;1558;42.700;23.360;2023-02-23T09:36:07;95228.63;;;17.42;47.63
3096;BME280;1558;42.700;23.360;2023-02-23T09:38:39;95232.81;;;17.36;47.85
3096;BME280;1558;42.700;23.360;2023-02-23T09:41:29;95237.69;;;18.04;46.72
3096;BME280;1558;42.700;23.360;2023-02-23T09:44:02;95157.06;;;17.12;46.42
3096;BME280;1558;42.700;23.360;2023-02-23T09:46:44;95237.75;;;17.56;47.03
3096;BME280;1558;42.700;23.360;2023-02-23T09:49:17;95232.91;;;17.87;46.73
3096;BME280;1558;42.700;23.360;2023-02-23T09:51:49;95235.25;;;17.88;45.98
3096;BME280;1558;42.700;23.360;2023-02-23T09:54:21;95230.59;;;17.92;46.06
3096;BME280;1558;42.700;23.360;2023-02-23T09:56:49;95235.41;;;18.16;46.58
3096;BME280;1558;42.700;23.360;2023-02-23T09:59:20;95224.84;;;18.08;45.74
3096;BME280;1558;42.700;23.360;2023-02-23T10:01:57;95217.38;;;18.70;45.25
3096;BME280;1558;42.700;23.360;2023-02-23T10:04:28;95212.78;;;18.95;43.94
3096;BME280;1558;42.700;23.360;2023-02-23T10:07:00;95207.69;;;18.90;43.91
3096;BME280;1558;42.700;23.360;2023-02-23T10:09:47;95214.84;;;18.30;44.51
3096;BME280;1558;42.700;23.360;2023-02-23T10:12:27;95218.34;;;18.34;44.63
3096;BME280;1558;42.700;23.360;2023-02-23T10:18:00;95209.91;;;18.49;44.87
3096;BME280;1558;42.700;23.360;2023-02-23T10:20:40;95172.38;;;17.74;45.39
3096;BME280;1558;42.700;23.360;2023-02-23T10:23:14;95210.88;;;18.20;45.68
3096;BME280;1558;42.700;23.360;2023-02-23T10:25:47;95206.88;;;18.07;45.93
3096;BME280;1558;42.700;23.360;2023-02-23T10:28:18;95155.88;;;18.21;44.97
3096;BME280;1558;42.700;23.360;2023-02-23T10:30:48;95192.47;;;18.96;44.04
3096;BME280;1558;42.700;23.360;2023-02-23T10:33:21;95186.16;;;18.78;44.03
3096;BME280;1558;42.700;23.360;2023-02-23T10:35:55;95190.00;;;18.59;44.13
3096;BME280;1558;42.700;23.360;2023-02-23T10:38:39;95188.97;;;18.09;44.44
3096;BME280;1558;42.700;23.360;2023-02-23T10:41:08;95188.25;;;18.19;44.68
3096;BME280;1558;42.700;23.360;2023-02-23T10:43:40;95184.53;;;18.56;44.32
3096;BME280;1558;42.700;23.360;2023-02-23T10:46:16;95163.16;;;18.86;44.25
3096;BME280;1558;42.700;23.360;2023-02-23T10:48:48;95177.81;;;18.43;43.20
3096;BME280;1558;42.700;23.360;2023-02-23T10:51:21;95031.53;;;16.90;45.09
3096;BME280;1558;42.700;23.360;2023-02-23T10:53:51;95175.84;;;18.36;45.29
3096;BME280;1558;42.700;23.360;2023-02-23T10:56:20;95164.72;;;18.90;44.80
3096;BME280;1558;42.700;23.360;2023-02-23T10:58:53;95147.22;;;19.48;43.01
3096;BME280;1558;42.700;23.360;2023-02-23T11:01:33;95157.00;;;19.63;42.66
3096;BME280;1558;42.700;23.360;2023-02-23T11:04:19;95153.03;;;19.85;41.98
3096;BME280;1558;42.700;23.360;2023-02-23T11:06:49;95152.59;;;20.04;41.59
3096;BME280;1558;42.700;23.360;2023-02-23T11:09:23;95070.56;;;19.80;40.77
3096;BME280;1558;42.700;23.360;2023-02-23T11:12:19;95147.16;;;20.01;39.90
3096;BME280;1558;42.700;23.360;2023-02-23T11:14:49;95129.09;;;20.14;40.09
3096;BME280;1558;42.700;23.360;2023-02-23T11:17:26;95142.34;;;20.44;39.17
3096;BME280;1558;42.700;23.360;2023-02-23T11:20:05;95144.47;;;19.80;39.36
3096;BME280;1558;42.700;23.360;2023-02-23T11:22:36;95144.50;;;19.66;40.28
3096;BME280;1558;42.700;23.360;2023-02-23T11:25:14;95136.25;;;19.69;40.67
3096;BME280;1558;42.700;23.360;2023-02-23T11:27:46;95136.28;;;19.58;40.57
3096;BME280;1558;42.700;23.360;2023-02-23T11:30:19;95109.56;;;20.05;40.21
3096;BME280;1558;42.700;23.360;2023-02-23T11:32:51;95125.19;;;20.18;39.86
3096;BME280;1558;42.700;23.360;2023-02-23T11:35:29;95111.09;;;20.16;39.46
3096;BME280;1558;42.700;23.360;2023-02-23T11:37:58;95081.16;;;19.60;39.79
3096;BME280;1558;42.700;23.360;2023-02-23T11:40:27;95074.50;;;19.19;39.73
3096;BME280;1558;42.700;23.360;2023-02-23T11:43:06;95065.09;;;18.46;40.11
3096;BME280;1558;42.700;23.360;2023-02-23T11:45:38;95118.97;;;18.59;40.82
3096;BME280;1558;42.700;23.360;2023-02-23T11:48:19;95116.69;;;18.93;40.70
3096;BME280;1558;42.700;23.360;2023-02-23T11:50:51;95101.09;;;19.50;39.64
3096;BME280;1558;42.700;23.360;2023-02-23T11:53:26;95105.00;;;19.56;39.70
3096;BME280;1558;42.700;23.360;2023-02-23T11:55:58;95093.22;;;19.84;39.68
3096;BME280;1558;42.700;23.360;2023-02-23T11:58:37;95101.41;;;19.87;39.26
3096;BME280;1558;42.700;23.360;2023-02-23T12:01:07;95078.75;;;19.80;39.29
3096;BME280;1558;42.700;23.360;2023-02-23T12:03:43;95092.34;;;20.22;38.87
3096;BME280;1558;42.700;23.360;2023-02-23T12:06:27;95098.34;;;19.68;39.25
3096;BME280;1558;42.700;23.360;2023-02-23T12:09:02;95097.16;;;19.65;39.14
3096;BME280;1558;42.700;23.360;2023-02-23T12:11:36;95105.75;;;19.64;39.41
3096;BME280;1558;42.700;23.360;2023-02-23T12:14:10;95097.53;;;19.71;38.79
3096;BME280;1558;42.700;23.360;2023-02-23T12:16:40;95094.06;;;19.31;39.21
3096;BME280;1558;42.700;23.360;2023-02-23T12:19:21;95096.03;;;18.99;39.80
3096;BME280;1558;42.700;23.360;2023-02-23T12:21:59;95090.50;;;19.70;39.53
3096;BME280;1558;42.700;23.360;2023-02-23T12:24:39;95081.50;;;19.80;38.46
3096;BME280;1558;42.700;23.360;2023-02-23T12:27:13;95069.06;;;19.36;38.79
3096;BME280;1558;42.700;23.360;2023-02-23T12:30:04;95074.50;;;18.83;39.49
3096;BME280;1558;42.700;23.360;2023-02-23T12:32:45;95087.78;;;18.78;39.91
3096;BME280;1558;42.700;23.360;2023-02-23T12:35:20;95076.44;;;18.51;39.90
3096;BME280;1558;42.700;23.360;2023-02-23T12:37:55;95081.03;;;18.37;40.35
3096;BME280;1558;42.700;23.360;2023-02-23T12:40:29;95080.72;;;18.49;40.30
3096;BME280;1558;42.700;23.360;2023-02-23T12:43:02;95084.22;;;18.46;40.58
3096;BME280;1558;42.700;23.360;2023-02-23T12:45:39;95084.94;;;18.36;40.38
3096;BME280;1558;42.700;23.360;2023-02-23T12:48:18;95077.53;;;18.40;40.85
3096;BME280;1558;42.700;23.360;2023-02-23T12:50:56;95078.38;;;18.54;41.39
3096;BME280;1558;42.700;23.360;2023-02-23T12:53:36;95029.13;;;18.40;40.76
3096;BME280;1558;42.700;23.360;2023-02-23T12:56:27;95082.28;;;18.71;40.87
3096;BME280;1558;42.700;23.360;2023-02-23T12:59:13;95072.16;;;18.61;40.53
3096;BME280;1558;42.700;23.360;2023-02-23T13:01:49;95073.72;;;18.72;40.57
3096;BME280;1558;42.700;23.360;2023-02-23T13:07:28;95068.22;;;18.55;40.71
3096;BME280;1558;42.700;23.360;2023-02-23T13:10:11;95041.56;;;18.16;41.01
3096;BME280;1558;42.700;23.360;2023-02-23T13:12:49;95069.72;;;18.35;40.51
3096;BME280;1558;42.700;23.360;2023-02-23T13:15:26;95061.53;;;18.42;40.67
3096;BME280;1558;42.700;23.360;2023-02-23T13:18:02;95070.06;;;18.22;40.63
3096;BME280;1558;42.700;23.360;2023-02-23T13:20:38;95068.91;;;18.20;41.00
3096;BME280;1558;42.700;23.360;2023-02-23T13:23:15;95068.91;;;18.27;40.87
3096;BME280;1558;42.700;23.360;2023-02-23T13:25:54;95049.38;;;18.14;40.84
3096;BME280;1558;42.700;23.360;2023-02-23T13:28:35;95003.22;;;17.74;41.34
3096;BME280;1558;42.700;23.360;2023-02-23T13:31:14;95058.41;;;18.33;41.33
3096;BME280;1558;42.700;23.360;2023-02-23T13:33:47;95051.38;;;18.39;40.97
3096;BME280;1558;42.700;23.360;2023-02-23T13:36:16;95053.34;;;18.35;41.33
3096;BME280;1558;42.700;23.360;2023-02-23T13:38:58;95053.22;;;18.03;41.81
3096;BME280;1558;42.700;23.360;2023-02-23T13:41:49;95046.16;;;17.91;41.89
3096;BME280;1558;42.700;23.360;2023-02-23T13:44:23;95053.97;;;17.93;42.14
3096;BME280;1558;42.700;23.360;2023-02-23T13:46:57;95054.31;;;17.88;41.58
3096;BME280;1558;42.700;23.360;2023-02-23T13:49:35;95037.84;;;17.56;41.83
3096;BME280;1558;42.700;23.360;2023-02-23T13:52:26;94989.72;;;17.27;41.53
3096;BME280;1558;42.700;23.360;2023-02-23T13:54:58;95007.66;;;17.28;41.78
3096;BME280;1558;42.700;23.360;2023-02-23T13:57:31;95070.16;;;17.54;42.10
3096;BME280;1558;42.700;23.360;2023-02-23T14:00:01;94911.69;;;16.43;41.94
3096;BME280;1558;42.700;23.360;2023-02-23T14:02:34;95065.44;;;17.51;41.96